Time;durP1;ratioP1;P1;durP2;ratioP2;P2;SDS_P1;SDS_P2;PMS_P1;PMS_P2;Temp;Humidity;BMP_temperature;BMP_pressure;BME280_temperature;BME280_humidity;BME280_pressure;Samples;Min_cycle;Max_cycle;Signal;HPM_P1;HPM_P2
2022/06/06 00:02:04;;;;;;;31.67;17.30;;;15.60;99.90;;;;;;5072562;28;20060;-79
2022/06/06 00:04:29;;;;;;;29.57;15.73;;;15.60;99.90;;;;;;5072480;28;20344;-79
2022/06/06 00:06:58;;;;;;;38.87;18.97;;;15.60;99.90;;;;;;5037961;28;20489;-79
2022/06/06 00:09:25;;;;;;;33.07;15.73;;;15.60;99.90;;;;;;5072338;28;20079;-79
2022/06/06 00:11:51;;;;;;;48.77;19.30;;;15.50;99.90;;;;;;5071888;28;20093;-79
2022/06/06 00:14:18;;;;;;;40.80;18.27;;;15.50;99.90;;;;;;5072111;28;20275;-78
2022/06/06 00:16:44;;;;;;;34.67;17.67;;;15.60;99.90;;;;;;5071937;28;20047;-78
2022/06/06 00:19:11;;;;;;;35.63;18.57;;;15.50;99.90;;;;;;5072579;28;20278;-78
2022/06/06 00:21:38;;;;;;;32.33;17.23;;;15.50;99.90;;;;;;5072041;28;20048;-79
2022/06/06 00:24:05;;;;;;;48.03;18.50;;;15.50;99.90;;;;;;5072111;28;20044;-79
2022/06/06 00:26:32;;;;;;;35.80;18.37;;;15.50;99.90;;;;;;5072040;28;20290;-78
2022/06/06 00:28:59;;;;;;;35.47;17.13;;;15.50;99.90;;;;;;5071786;28;20098;-79
2022/06/06 00:36:58;;;;;;;37.03;19.10;;;15.50;99.90;;;;;;5075088;28;20048;-79
2022/06/06 00:39:25;;;;;;;33.40;18.87;;;15.40;99.90;;;;;;5075528;28;20488;-80
2022/06/06 00:41:53;;;;;;;31.57;17.17;;;15.40;99.90;;;;;;5075659;28;20127;-80
2022/06/06 00:44:28;;;;;;;35.47;16.03;;;15.40;99.90;;;;;;5057781;28;20415;-80
2022/06/06 00:47:00;;;;;;;22.40;11.98;;;15.30;99.90;;;;;;5075447;28;20141;-80
2022/06/06 00:49:40;;;;;;;36.97;17.83;;;15.40;99.90;;;;;;5075402;28;20049;-80
2022/06/06 00:52:18;;;;;;;37.60;18.57;;;15.30;99.90;;;;;;5075824;28;20441;-80
2022/06/06 00:54:46;;;;;;;34.67;18.67;;;15.30;99.90;;;;;;5057796;28;20051;-80
2022/06/06 00:57:18;;;;;;;26.33;15.17;;;15.30;99.90;;;;;;5075225;28;20041;-80
2022/06/06 00:59:45;;;;;;;29.97;14.90;;;15.30;99.90;;;;;;5074913;28;20146;-80
2022/06/06 01:02:13;;;;;;;28.13;12.83;;;15.20;99.90;;;;;;5075217;28;20275;-81
2022/06/06 01:04:40;;;;;;;32.87;14.77;;;15.20;99.90;;;;;;5075322;28;20349;-80
2022/06/06 01:07:08;;;;;;;26.43;12.63;;;15.10;99.90;;;;;;5075438;28;20377;-79
2022/06/06 01:09:36;;;;;;;28.70;12.47;;;15.10;99.90;;;;;;5074656;28;20044;-79
2022/06/06 01:12:07;;;;;;;37.97;13.80;;;15.10;99.90;;;;;;5074805;28;20297;-79
2022/06/06 01:14:42;;;;;;;29.63;13.80;;;15.10;99.90;;;;;;5075015;28;20283;-79
2022/06/06 01:17:14;;;;;;;29.63;12.73;;;15.00;99.90;;;;;;5075036;28;20122;-79
2022/06/06 01:19:46;;;;;;;26.97;12.63;;;15.00;99.90;;;;;;5075016;28;20084;-79
2022/06/06 01:22:45;;;;;;;32.77;11.17;;;15.00;99.90;;;;;;5075099;28;20044;-79
2022/06/06 01:25:48;;;;;;;27.17;10.97;;;15.00;99.90;;;;;;5074836;28;20329;-80
2022/06/06 01:28:29;;;;;;;23.93;10.67;;;14.90;99.90;;;;;;5074882;28;20154;-79
2022/06/06 01:30:58;;;;;;;21.63;10.63;;;14.90;99.90;;;;;;5074521;28;20134;-80
2022/06/06 01:33:24;;;;;;;24.97;10.40;;;14.90;99.90;;;;;;5074592;28;20279;-79
2022/06/06 01:35:50;;;;;;;24.60;11.40;;;14.80;99.90;;;;;;5074252;28;20289;-79
2022/06/06 01:38:21;;;;;;;29.57;10.30;;;14.90;99.90;;;;;;5074854;28;20059;-79
2022/06/06 01:41:04;;;;;;;27.20;8.97;;;14.80;99.90;;;;;;5074328;28;20322;-80
2022/06/06 01:43:41;;;;;;;15.40;8.40;;;14.80;99.90;;;;;;5074391;28;20275;-80
2022/06/06 01:46:17;;;;;;;17.70;8.60;;;14.80;99.90;;;;;;5072303;28;20322;-80
2022/06/06 01:48:44;;;;;;;21.63;8.57;;;14.80;99.90;;;;;;5074629;28;20174;-80
2022/06/06 01:51:13;;;;;;;18.67;9.00;;;14.80;99.90;;;;;;5074389;28;20052;-81
2022/06/06 01:53:40;;;;;;;24.83;10.33;;;14.80;99.90;;;;;;5056718;28;20328;-81
2022/06/06 01:56:12;;;;;;;17.43;7.83;;;14.80;99.90;;;;;;5073971;28;20347;-81
2022/06/06 01:58:38;;;;;;;16.17;8.03;;;14.80;99.90;;;;;;5074001;28;20298;-81
2022/06/06 02:01:04;;;;;;;24.73;10.97;;;14.80;99.90;;;;;;5073987;28;20279;-80
2022/06/06 02:03:33;;;;;;;20.70;10.40;;;14.70;99.90;;;;;;5074207;28;20044;-81
2022/06/06 02:06:02;;;;;;;21.60;10.33;;;14.70;99.90;;;;;;5073844;28;20616;-81
2022/06/06 02:08:28;;;;;;;25.37;11.40;;;14.70;99.90;;;;;;5073958;28;20123;-81
2022/06/06 02:10:54;;;;;;;22.53;10.40;;;14.60;99.90;;;;;;5073536;28;20822;-81
2022/06/06 02:13:21;;;;;;;19.67;10.73;;;14.60;99.90;;;;;;5073994;28;20037;-82
2022/06/06 02:15:46;;;;;;;17.33;9.60;;;14.60;99.90;;;;;;5056235;28;20045;-82
2022/06/06 02:18:13;;;;;;;23.33;11.60;;;14.60;99.90;;;;;;5073371;28;20726;-82
2022/06/06 02:20:39;;;;;;;25.90;12.30;;;14.60;99.90;;;;;;5056236;28;20050;-83
2022/06/06 02:23:05;;;;;;;20.70;11.37;;;14.60;99.90;;;;;;5073450;28;20275;-83
2022/06/06 02:25:31;;;;;;;18.10;11.00;;;14.60;99.90;;;;;;5073583;28;20768;-83
2022/06/06 02:27:57;;;;;;;22.37;11.90;;;14.60;99.90;;;;;;5055733;28;20052;-83
2022/06/06 02:30:26;;;;;;;21.10;11.77;;;14.60;99.90;;;;;;5073614;28;20359;-84
2022/06/06 02:32:52;;;;;;;21.10;10.90;;;14.60;99.90;;;;;;5073267;28;20078;-84
2022/06/06 02:35:25;;;;;;;21.00;10.77;;;14.50;99.90;;;;;;5055841;28;20325;-84
2022/06/06 02:37:52;;;;;;;18.53;10.13;;;14.50;99.90;;;;;;5073738;28;20334;-81
2022/06/06 02:40:20;;;;;;;21.13;11.30;;;14.50;99.90;;;;;;5073601;28;20710;-82
2022/06/06 02:42:46;;;;;;;19.10;9.80;;;14.50;99.90;;;;;;5073396;28;20282;-85
2022/06/06 02:45:15;;;;;;;22.03;10.80;;;14.50;99.90;;;;;;5073128;28;20286;-84
2022/06/06 02:47:43;;;;;;;19.20;9.67;;;14.50;99.90;;;;;;5073166;28;20436;-84
2022/06/06 02:50:09;;;;;;;18.50;9.80;;;14.50;99.90;;;;;;5038698;28;20374;-84
2022/06/06 02:52:37;;;;;;;16.43;10.17;;;14.50;99.90;;;;;;5055355;28;20344;-84
2022/06/06 02:55:05;;;;;;;16.53;9.40;;;14.40;99.90;;;;;;5072976;28;20279;-83
2022/06/06 02:57:31;;;;;;;16.70;9.03;;;14.50;99.90;;;;;;5072855;28;20299;-84
2022/06/06 03:00:00;;;;;;;12.60;8.20;;;14.40;99.90;;;;;;5055060;28;20294;-82
2022/06/06 03:02:26;;;;;;;13.60;7.47;;;14.40;99.90;;;;;;5073015;28;20282;-83
2022/06/06 03:04:52;;;;;;;16.87;9.00;;;14.40;99.90;;;;;;5073031;28;20279;-81
2022/06/06 03:07:36;;;;;;;17.07;9.00;;;14.40;99.90;;;;;;5054960;28;20290;-82
2022/06/06 03:10:26;;;;;;;15.43;8.97;;;14.50;99.90;;;;;;5072927;28;20127;-83
2022/06/06 03:13:02;;;;;;;17.13;9.67;;;14.50;99.90;;;;;;5073006;28;20279;-83
2022/06/06 03:20:46;;;;;;;17.50;8.57;;;14.50;99.90;;;;;;5072713;28;20279;-82
2022/06/06 03:22:09;;;;;;;18.10;9.67;;;14.50;99.90;;;;;;5072788;28;20309;-82
2022/06/06 03:25:06;;;;;;;25.97;11.07;;;14.40;99.90;;;;;;5073134;28;20298;-82
2022/06/06 03:28:22;;;;;;;15.50;8.97;;;14.50;99.90;;;;;;5072925;28;20290;-81
2022/06/06 03:30:50;;;;;;;20.67;10.32;;;14.50;99.90;;;;;;4994673;28;20296;-82
2022/06/06 03:33:36;;;;;;;16.70;9.53;;;14.40;99.90;;;;;;5060638;28;20142;-82
2022/06/06 03:36:10;;;;;;;;;;;14.50;99.90;;;;;;5072900;28;20332;-82
2022/06/06 03:38:46;;;;;;;16.93;9.73;;;14.40;99.90;;;;;;5072503;28;20295;-82
2022/06/06 03:41:46;;;;;;;18.27;9.93;;;14.40;99.90;;;;;;5072590;28;20283;-82
2022/06/06 03:44:20;;;;;;;17.90;10.37;;;14.50;99.90;;;;;;5043580;28;20294;-82
2022/06/06 03:47:00;;;;;;;15.68;9.88;;;14.50;99.90;;;;;;5072649;28;20600;-82
2022/06/06 03:49:58;;;;;;;23.27;10.50;;;14.50;99.90;;;;;;5072856;28;20049;-83
2022/06/06 03:52:27;;;;;;;16.33;10.87;;;14.40;99.90;;;;;;5071823;28;20329;-83
2022/06/06 03:55:01;;;;;;;20.03;10.63;;;14.40;99.90;;;;;;5072407;28;20279;-84
2022/06/06 03:57:28;;;;;;;18.45;10.70;;;14.40;99.90;;;;;;5072271;28;20295;-83
2022/06/06 03:59:57;;;;;;;18.90;11.20;;;14.50;99.90;;;;;;5072802;28;20059;-82
2022/06/06 04:02:31;;;;;;;20.83;11.43;;;14.50;99.90;;;;;;5054338;28;20340;-81
2022/06/06 04:05:06;;;;;;;17.38;10.25;;;14.50;99.90;;;;;;5072498;28;20271;-81
2022/06/06 04:07:33;;;;;;;17.33;9.93;;;14.50;99.90;;;;;;5072638;28;20067;-80
2022/06/06 04:09:59;;;;;;;17.93;9.90;;;14.50;99.90;;;;;;5076302;28;20048;-80
2022/06/06 04:12:34;;;;;;;13.07;8.57;;;14.50;99.90;;;;;;5075978;28;20310;-80
2022/06/06 04:15:20;;;;;;;16.48;9.10;;;14.50;99.90;;;;;;5076360;28;20279;-81
2022/06/06 04:18:04;;;;;;;7.63;4.90;;;14.60;99.90;;;;;;5076004;28;20047;-82
2022/06/06 04:20:38;;;;;;;7.17;3.50;;;14.60;99.90;;;;;;5058345;28;20340;-82
2022/06/06 04:23:04;;;;;;;7.33;4.20;;;14.50;99.90;;;;;;5075834;28;20374;-80
2022/06/06 04:25:35;;;;;;;6.33;4.07;;;14.50;99.90;;;;;;5058308;28;20759;-84
2022/06/06 04:28:17;;;;;;;9.93;5.67;;;14.50;99.90;;;;;;5058195;28;20083;-85
2022/06/06 04:31:10;;;;;;;10.13;6.00;;;14.50;99.90;;;;;;5075781;28;20561;-84
2022/06/06 04:33:46;;;;;;;11.60;7.10;;;14.40;99.90;;;;;;5076010;28;20285;-85
2022/06/06 04:36:19;;;;;;;14.10;7.60;;;14.50;99.90;;;;;;5041099;28;20634;-85
2022/06/06 04:39:23;;;;;;;17.33;8.93;;;14.40;99.90;;;;;;5075713;28;20301;-83
2022/06/06 04:42:05;;;;;;;22.73;10.80;;;14.40;99.90;;;;;;5075967;28;20314;-84
2022/06/06 04:44:48;;;;;;;26.40;12.70;;;14.40;99.90;;;;;;5057883;28;20313;-84
2022/06/06 04:47:35;;;;;;;20.50;13.07;;;14.40;99.90;;;;;;5057835;28;20052;-85
2022/06/06 04:50:04;;;;;;;19.90;12.57;;;14.30;99.90;;;;;;5075877;28;20344;-84
2022/06/06 04:52:32;;;;;;;20.17;12.73;;;14.30;99.90;;;;;;5074758;28;20279;-83
2022/06/06 04:55:00;;;;;;;21.37;12.77;;;14.30;99.90;;;;;;5075622;28;20631;-84
2022/06/06 04:57:27;;;;;;;30.73;16.80;;;14.30;99.90;;;;;;5075132;28;20361;-83
2022/06/06 04:59:57;;;;;;;29.80;15.77;;;14.30;99.90;;;;;;5057409;28;20312;-83
2022/06/06 05:02:23;;;;;;;36.03;17.53;;;14.30;99.90;;;;;;5075176;28;20271;-83
2022/06/06 05:04:49;;;;;;;33.33;16.63;;;14.30;99.90;;;;;;5057712;28;20293;-83
2022/06/06 05:07:55;;;;;;;26.80;15.07;;;14.30;99.90;;;;;;5073946;28;20279;-82
2022/06/06 05:10:37;;;;;;;23.73;13.40;;;14.30;99.90;;;;;;5074739;28;20509;-82
2022/06/06 05:13:12;;;;;;;31.47;13.87;;;14.20;99.90;;;;;;5075128;28;20324;-82
2022/06/06 05:16:10;;;;;;;24.55;12.75;;;14.20;99.90;;;;;;5075621;28;20310;-83
2022/06/06 05:18:59;;;;;;;19.63;11.27;;;14.20;99.90;;;;;;5040750;28;20416;-83
2022/06/06 05:21:25;;;;;;;40.20;14.00;;;14.20;99.90;;;;;;5074924;28;20283;-82
2022/06/06 05:24:07;;;;;;;26.27;12.30;;;14.20;99.90;;;;;;5074881;28;20606;-82
2022/06/06 05:26:41;;;;;;;30.43;14.77;;;14.10;99.90;;;;;;5074605;28;20049;-82
2022/06/06 05:29:10;;;;;;;22.97;11.73;;;14.10;99.90;;;;;;5074641;28;20763;-82
2022/06/06 05:31:54;;;;;;;22.03;12.13;;;14.10;99.90;;;;;;5074560;28;20308;-83
2022/06/06 05:34:35;;;;;;;24.03;11.53;;;14.10;99.90;;;;;;5074392;28;20294;-83
2022/06/06 05:37:45;;;;;;;25.03;12.00;;;14.10;99.90;;;;;;5074676;28;20673;-83
2022/06/06 05:40:23;;;;;;;26.67;12.30;;;14.10;99.90;;;;;;5012681;28;20293;-82
2022/06/06 05:43:01;;;;;;;26.03;12.40;;;14.10;99.90;;;;;;5069648;28;20341;-82
2022/06/06 05:45:39;;;;;;;29.10;12.50;;;14.10;99.90;;;;;;5056295;28;20301;-81
2022/06/06 05:48:49;;;;;;;28.40;13.43;;;14.10;99.90;;;;;;5074554;28;20279;-81
2022/06/06 05:51:18;;;;;;;26.23;11.07;;;14.00;99.90;;;;;;5042352;28;20287;-80
2022/06/06 05:54:11;;;;;;;33.73;15.10;;;14.00;99.90;;;;;;5074226;28;20344;-81
2022/06/06 05:57:00;;;;;;;25.50;12.80;;;14.00;99.90;;;;;;5074039;28;20289;-81
2022/06/06 05:59:30;;;;;;;24.50;12.00;;;14.00;99.90;;;;;;5073508;28;20291;-81
2022/06/06 06:02:30;;;;;;;19.40;10.97;;;14.00;99.90;;;;;;5056225;28;20781;-82
2022/06/06 06:05:17;;;;;;;17.90;11.17;;;14.00;99.90;;;;;;5074291;28;20283;-82
2022/06/06 06:07:49;;;;;;;18.43;9.40;;;14.00;99.90;;;;;;5056697;28;20286;-82
2022/06/06 06:10:30;;;;;;;18.63;9.43;;;14.00;99.90;;;;;;5074052;28;20774;-82
2022/06/06 06:13:53;;;;;;;15.20;8.17;;;14.00;99.90;;;;;;5073808;28;20635;-82
2022/06/06 06:16:21;;;;;;;11.87;8.10;;;14.00;99.90;;;;;;5011608;28;20331;-82
2022/06/06 06:18:51;;;;;;;13.00;6.97;;;14.10;99.90;;;;;;4995524;28;20305;-82
2022/06/06 06:21:22;;;;;;;12.50;6.70;;;14.10;99.90;;;;;;5051120;28;20294;-77
2022/06/06 06:23:59;;;;;;;9.13;4.90;;;14.20;99.90;;;;;;5073705;28;20758;-81
2022/06/06 06:26:25;;;;;;;7.50;4.10;;;14.20;99.90;;;;;;5073435;28;20358;-83
2022/06/06 06:28:54;;;;;;;6.73;3.77;;;14.30;99.90;;;;;;5073808;28;20275;-82
2022/06/06 06:31:25;;;;;;;6.07;3.27;;;14.30;99.90;;;;;;5072771;28;20283;-82
2022/06/06 06:34:13;;;;;;;7.13;3.37;;;14.30;99.90;;;;;;5073504;28;20782;-81
2022/06/06 06:37:07;;;;;;;6.57;3.10;;;14.30;99.90;;;;;;5073181;28;20297;-83
2022/06/06 06:39:44;;;;;;;7.57;3.60;;;14.30;99.90;;;;;;5073247;28;20286;-82
2022/06/06 06:42:24;;;;;;;6.43;3.47;;;14.30;99.90;;;;;;5073389;28;20620;-82
2022/06/06 06:45:21;;;;;;;7.30;4.03;;;14.30;99.90;;;;;;5073470;28;20324;-82
2022/06/06 06:47:52;;;;;;;5.53;3.50;;;14.30;99.90;;;;;;5073494;28;20376;-81
2022/06/06 06:50:29;;;;;;;9.23;3.70;;;14.20;99.90;;;;;;5071965;28;20685;-82
2022/06/06 06:53:06;;;;;;;7.60;4.30;;;14.30;99.90;;;;;;5073198;28;20293;-82
2022/06/06 06:55:45;;;;;;;8.53;4.00;;;14.30;99.90;;;;;;5073099;28;20688;-82
2022/06/06 06:58:19;;;;;;;10.47;4.23;;;14.30;99.90;;;;;;5073254;28;20298;-82
2022/06/06 07:01:01;;;;;;;10.07;4.87;;;14.20;99.90;;;;;;5072695;28;20275;-80
2022/06/06 07:10:24;;;;;;;8.10;3.63;;;14.40;99.90;;;;;;5072908;28;20314;-81
2022/06/06 07:13:08;;;;;;;10.00;3.67;;;14.60;99.90;;;;;;5072887;28;20358;-81
2022/06/06 07:16:18;;;;;;;8.77;3.40;;;14.60;99.90;;;;;;5072567;28;20311;-81
2022/06/06 07:18:48;;;;;;;8.60;4.17;;;14.60;99.90;;;;;;5010574;28;20328;-80
2022/06/06 07:21:16;;;;;;;9.43;4.10;;;14.60;99.90;;;;;;5062139;28;20286;-75
2022/06/06 07:23:46;;;;;;;9.13;3.93;;;14.50;99.90;;;;;;5071003;28;20286;-79
2022/06/06 07:26:13;;;;;;;10.83;4.00;;;14.40;99.90;;;;;;5074973;28;20288;-79
2022/06/06 07:28:38;;;;;;;8.27;4.20;;;14.40;99.90;;;;;;5092463;28;20833;-79
2022/06/06 07:31:26;;;;;;;8.73;4.20;;;14.50;99.90;;;;;;5058370;28;20374;-80
2022/06/06 07:34:03;;;;;;;8.97;4.20;;;14.50;99.90;;;;;;5092849;28;20051;-78
2022/06/06 07:36:55;;;;;;;11.20;3.97;;;14.50;99.90;;;;;;5092526;28;20298;-77
2022/06/06 07:39:37;;;;;;;11.20;4.57;;;14.60;99.90;;;;;;5092894;28;20282;-77
2022/06/06 07:42:34;;;;;;;10.67;4.27;;;14.90;99.90;;;;;;5093857;28;20797;-79
2022/06/06 07:45:16;;;;;;;10.93;4.30;;;15.30;99.90;;;;;;5096353;28;20369;-78
2022/06/06 07:48:14;;;;;;;10.13;4.03;;;16.50;99.90;;;;;;5096692;28;20286;-78
2022/06/06 07:51:03;;;;;;;5.93;3.10;;;18.30;99.90;;;;;;5096611;28;20040;-77
2022/06/06 07:53:32;;;;;;;6.27;3.03;;;;;;;;;;5096056;28;20113;-77
2022/06/06 07:56:04;;;;;;;6.90;3.60;;;;;;;;;;5096109;28;20040;-77
2022/06/06 07:58:37;;;;;;;6.53;2.77;;;;;;;;;;5096024;28;20071;-77
2022/06/06 08:01:38;;;;;;;8.47;3.13;;;18.90;99.90;;;;;;5076273;28;20035;-77
2022/06/06 08:04:23;;;;;;;5.17;2.13;;;18.60;99.90;;;;;;5094295;28;20086;-78
2022/06/06 08:07:08;;;;;;;5.57;2.70;;;17.80;99.90;;;;;;5094699;28;20052;-76
2022/06/06 08:09:34;;;;;;;;;;;;;;;;;;5095664;28;20381;-76
2022/06/06 08:12:03;;;;;;;6.83;3.20;;;16.90;99.90;;;;;;5096398;28;19927;-76
2022/06/06 08:15:11;;;;;;;5.20;2.70;;;16.70;99.90;;;;;;5096577;28;20048;-76
2022/06/06 08:17:52;;;;;;;5.60;3.33;;;16.50;99.90;;;;;;5078207;28;20044;-76
2022/06/06 08:20:42;;;;;;;7.63;3.37;;;16.20;99.90;;;;;;5096348;28;20051;-79
2022/06/06 08:23:09;;;;;;;7.37;4.17;;;16.00;99.90;;;;;;5096659;28;20048;-79
2022/06/06 08:25:36;;;;;;;8.57;3.73;;;;;;;;;;5095993;28;20082;-79
2022/06/06 08:28:04;;;;;;;9.30;4.90;;;15.60;99.90;;;;;;5096116;28;20404;-77
2022/06/06 08:30:32;;;;;;;8.83;4.50;;;15.50;99.90;;;;;;5096007;28;20040;-78
2022/06/06 08:32:57;;;;;;;7.13;4.40;;;15.40;99.90;;;;;;5096021;28;20194;-79
2022/06/06 08:35:28;;;;;;;7.87;4.10;;;15.40;99.90;;;;;;5078521;28;20567;-78
2022/06/06 08:38:10;;;;;;;11.03;5.90;;;15.40;99.90;;;;;;5095048;28;20504;-81
2022/06/06 08:40:52;;;;;;;7.60;4.20;;;15.30;99.90;;;;;;5093676;28;20040;-81
2022/06/06 08:43:40;;;;;;;8.70;4.30;;;15.30;99.90;;;;;;5078236;28;20043;-82
2022/06/06 08:46:20;;;;;;;6.50;4.47;;;15.20;99.90;;;;;;5096317;28;20097;-80
2022/06/06 08:52:59;;;;;;;9.87;6.13;;;15.40;99.90;;;;;;5077432;28;20060;-79
2022/06/06 08:55:48;;;;;;;11.40;6.80;;;15.70;99.90;;;;;;5076324;28;20154;-79
2022/06/06 08:58:26;;;;;;;11.00;6.00;;;16.10;99.90;;;;;;5077670;28;20226;-77
2022/06/06 09:01:18;;;;;;;12.40;6.17;;;16.30;99.90;;;;;;5095729;28;20458;-79
2022/06/06 09:04:09;;;;;;;12.00;6.13;;;16.30;99.90;;;;;;5095231;28;20511;-78
2022/06/06 09:06:46;;;;;;;9.07;5.00;;;16.30;99.90;;;;;;5095079;28;20040;-79
2022/06/06 09:09:33;;;;;;;8.50;4.17;;;16.30;99.90;;;;;;5095399;28;20131;-72
2022/06/06 09:12:39;;;;;;;8.30;4.57;;;16.30;99.90;;;;;;5095037;28;20082;-74
2022/06/06 09:15:50;;;;;;;8.52;4.28;;;16.50;99.90;;;;;;5095312;28;20054;-72
2022/06/06 09:18:34;;;;;;;10.47;5.03;;;16.80;99.90;;;;;;5094553;28;20055;-74
2022/06/06 09:21:10;;;;;;;9.93;4.83;;;;;;;;;;5092418;28;20047;-74
2022/06/06 09:23:52;;;;;;;12.47;4.90;;;;;;;;;;5076760;28;20044;-75
2022/06/06 09:26:24;;;;;;;10.03;4.00;;;17.50;99.90;;;;;;5074402;28;20044;-77
2022/06/06 09:29:09;;;;;;;10.20;3.60;;;;;;;;;;5094730;28;20044;-74
2022/06/06 09:31:49;;;;;;;9.20;3.72;;;17.70;99.90;;;;;;5095079;28;20074;-81
2022/06/06 09:34:41;;;;;;;8.10;4.07;;;17.80;99.90;;;;;;5095079;28;20047;-81
2022/06/06 09:37:32;;;;;;;8.53;2.77;;;17.70;99.90;;;;;;5076784;28;20151;-80
2022/06/06 09:40:18;;;;;;;9.10;3.03;;;17.60;99.90;;;;;;5094723;28;20048;-80
2022/06/06 09:43:08;;;;;;;8.57;3.70;;;17.50;99.90;;;;;;5094617;28;20462;-79
2022/06/06 09:45:37;;;;;;;9.03;2.57;;;17.50;99.90;;;;;;5094737;28;20046;-80
2022/06/06 09:48:14;;;;;;;12.50;3.20;;;17.50;99.90;;;;;;5094521;28;20155;-81
2022/06/06 09:50:56;;;;;;;11.57;2.80;;;17.60;99.90;;;;;;5094790;28;20569;-80
2022/06/06 09:53:27;;;;;;;11.00;2.70;;;;;;;;;;5094736;28;20122;-80
2022/06/06 09:59:22;;;;;;;8.43;2.57;;;;;;;;;;5094269;28;20055;-80
2022/06/06 10:02:08;;;;;;;7.77;2.20;;;;;;;;;;5094099;28;20054;-80
2022/06/06 10:04:34;;;;;;;;;;;;;;;;;;5094832;28;20073;-80
2022/06/06 10:07:06;;;;;;;9.80;2.17;;;;;;;;;;5093179;28;20027;-80
2022/06/06 10:09:47;;;;;;;7.33;2.20;;;;;;;;;;5094421;28;20176;-81
2022/06/06 10:12:19;;;;;;;7.43;2.20;;;;;;;;;;5094170;28;20445;-80
2022/06/06 10:14:54;;;;;;;12.83;2.77;;;;;;;;;;5093878;28;20051;-80
2022/06/06 10:17:32;;;;;;;9.77;2.00;;;;;;;;;;5094073;28;20047;-80
2022/06/06 10:19:58;;;;;;;8.30;2.10;;;;;;;;;;5093936;28;20052;-80
2022/06/06 10:22:46;;;;;;;9.13;2.17;;;17.80;99.90;;;;;;5094081;28;20101;-80
2022/06/06 10:25:19;;;;;;;9.20;1.90;;;17.80;99.90;;;;;;5093782;28;20059;-80
2022/06/06 10:28:03;;;;;;;9.83;2.47;;;17.90;99.90;;;;;;5094378;28;20052;-81
2022/06/06 10:31:00;;;;;;;7.38;1.95;;;18.00;99.90;;;;;;5093760;28;20557;-81
2022/06/06 10:33:48;;;;;;;10.33;2.33;;;18.00;99.90;;;;;;5075718;28;20051;-79
2022/06/06 10:36:30;;;;;;;9.67;2.37;;;18.00;99.90;;;;;;5087016;28;20044;-80
2022/06/06 10:39:25;;;;;;;15.83;1.83;;;18.00;99.90;;;;;;5090717;28;20044;-80
2022/06/06 10:42:02;;;;;;;5.50;1.60;;;17.90;99.90;;;;;;5083255;28;20130;-78
2022/06/06 10:44:50;;;;;;;8.80;1.60;;;17.80;99.90;;;;;;5075235;28;20106;-79
2022/06/06 10:47:21;;;;;;;6.03;1.60;;;17.80;99.90;;;;;;5094120;28;20071;-79
2022/06/06 10:49:47;;;;;;;7.33;1.97;;;17.80;99.90;;;;;;5093732;28;20381;-77
2022/06/06 10:52:49;;;;;;;7.10;1.77;;;17.80;99.90;;;;;;5092837;28;20055;-73
2022/06/06 10:55:21;;;;;;;8.53;1.70;;;17.90;99.90;;;;;;5091055;28;20047;-79
2022/06/06 10:57:49;;;;;;;6.83;1.70;;;17.90;99.90;;;;;;5093453;28;20048;-81
2022/06/06 11:00:23;;;;;;;7.80;1.97;;;18.00;99.90;;;;;;5075234;28;20055;-80
2022/06/06 11:03:25;;;;;;;8.40;1.90;;;18.10;99.90;;;;;;5093307;28;20055;-81
2022/06/06 11:06:21;;;;;;;5.40;1.60;;;18.20;99.90;;;;;;5093323;28;20054;-81
2022/06/06 11:08:50;;;;;;;7.32;1.75;;;;;;;;;;5093226;28;20446;-80
2022/06/06 11:11:42;;;;;;;10.17;2.33;;;;;;;;;;5092812;28;20134;-80
2022/06/06 11:14:17;;;;;;;9.37;2.10;;;;;;;;;;5092534;28;20036;-75
2022/06/06 11:16:56;;;;;;;12.90;2.37;;;;;;;;;;5092071;28;20059;-75
2022/06/06 11:19:40;;;;;;;7.13;2.27;;;;;;;;;;5092873;28;20048;-78
2022/06/06 11:22:06;;;;;;;5.65;1.60;;;;;;;;;;5092277;28;20373;-76
2022/06/06 11:24:35;;;;;;;7.53;2.10;;;;;;;;;;5085474;28;20048;-79
2022/06/06 11:27:01;;;;;;;6.07;2.07;;;;;;;;;;5064443;28;20177;-80
2022/06/06 11:29:36;;;;;;;5.83;1.73;;;;;;;;;;5088504;28;20080;-79
2022/06/06 11:32:02;;;;;;;;;;;;;;;;;;5088141;28;20050;-79
2022/06/06 11:34:49;;;;;;;11.53;2.10;;;;;;;;;;5089794;28;19920;-80
2022/06/06 11:37:18;;;;;;;7.60;1.90;;;;;;;;;;5088080;28;20531;-79
2022/06/06 11:40:03;;;;;;;7.27;2.10;;;;;;;;;;5089718;28;20104;-78
2022/06/06 11:42:38;;;;;;;8.65;2.45;;;;;;;;;;5086827;28;20051;-80
2022/06/06 11:45:19;;;;;;;7.57;1.73;;;;;;;;;;5091278;28;20093;-80
2022/06/06 11:47:46;;;;;;;8.87;2.00;;;;;;;;;;5090080;28;20084;-80
2022/06/06 11:50:21;;;;;;;6.30;2.00;;;;;;;;;;5070957;28;20075;-80
2022/06/06 11:52:47;;;;;;;6.40;2.20;;;;;;;;;;5070131;28;20053;-79
2022/06/06 11:55:16;;;;;;;8.23;1.90;;;;;;;;;;5070866;28;20408;-79
2022/06/06 11:58:01;;;;;;;7.73;2.07;;;;;;;;;;5071381;28;20048;-79
2022/06/06 12:00:33;;;;;;;8.45;2.45;;;;;;;;;;5053436;28;20072;-79
2022/06/06 12:03:11;;;;;;;8.87;2.43;;;;;;;;;;5090561;28;20048;-79
2022/06/06 12:06:01;;;;;;;7.57;2.13;;;17.60;99.90;;;;;;5091203;28;20056;-77
2022/06/06 12:08:54;;;;;;;8.47;2.10;;;17.40;99.90;;;;;;5091753;28;20051;-80
2022/06/06 12:11:32;;;;;;;6.93;2.20;;;17.30;99.90;;;;;;5089528;28;20500;-79
2022/06/06 12:14:25;;;;;;;8.17;2.27;;;17.30;99.90;;;;;;5090955;28;20488;-78
2022/06/06 12:17:10;;;;;;;9.60;2.53;;;17.40;99.90;;;;;;5085020;28;20055;-80
2022/06/06 12:19:44;;;;;;;7.50;2.78;;;17.50;99.90;;;;;;5083907;28;20048;-81
2022/06/06 12:22:32;;;;;;;7.47;2.17;;;17.70;99.90;;;;;;5089568;28;20040;-81
2022/06/06 12:25:27;;;;;;;8.03;2.53;;;17.80;99.90;;;;;;5091613;28;20469;-80
2022/06/06 12:28:17;;;;;;;7.50;2.00;;;17.70;99.90;;;;;;5091401;28;20055;-81
2022/06/06 12:30:45;;;;;;;9.50;2.10;;;17.60;99.90;;;;;;5093141;28;20040;-80
2022/06/06 12:33:21;;;;;;;7.63;2.10;;;17.50;99.90;;;;;;5094708;28;20510;-80
2022/06/06 12:35:59;;;;;;;8.73;2.10;;;17.40;99.90;;;;;;5095124;28;20067;-78
2022/06/06 12:39:22;;;;;;;8.40;2.50;;;17.40;99.90;;;;;;5074286;28;20163;-71
2022/06/06 12:41:59;;;;;;;5.40;1.57;;;17.30;99.90;;;;;;5030644;28;20076;-81
2022/06/06 12:44:43;;;;;;;6.90;2.10;;;17.30;99.90;;;;;;5015397;28;20536;-81
2022/06/06 12:47:46;;;;;;;9.83;2.13;;;17.30;99.90;;;;;;5060131;28;20059;-79
2022/06/06 12:50:36;;;;;;;7.17;1.73;;;17.30;99.90;;;;;;5074147;28;20132;-80
2022/06/06 12:53:33;;;;;;;5.63;2.50;;;17.20;99.90;;;;;;5074421;28;20052;-80
2022/06/06 12:56:37;;;;;;;6.27;2.20;;;17.20;99.90;;;;;;5074547;28;20527;-80
2022/06/06 12:59:18;;;;;;;8.70;1.93;;;17.20;99.90;;;;;;5074317;28;20055;-80
2022/06/06 13:02:11;;;;;;;4.60;1.80;;;17.20;99.90;;;;;;5072692;28;20084;-80
2022/06/06 13:05:10;;;;;;;5.03;1.93;;;17.20;99.90;;;;;;5074305;28;20131;-78
2022/06/06 13:07:59;;;;;;;4.50;1.60;;;17.10;99.90;;;;;;5074139;28;20060;-80
2022/06/06 13:11:13;;;;;;;3.43;1.80;;;16.90;99.90;;;;;;5073539;28;20064;-79
2022/06/06 13:14:09;;;;;;;3.43;1.40;;;16.70;99.90;;;;;;5042370;28;20102;-80
2022/06/06 13:17:15;;;;;;;5.40;1.80;;;16.40;99.90;;;;;;5073889;28;20079;-81
2022/06/06 13:19:56;;;;;;;4.47;1.83;;;16.30;99.90;;;;;;5070370;28;20111;-79
2022/06/06 13:22:41;;;;;;;4.43;2.20;;;;;;;;;;5062768;28;20409;-74
2022/06/06 13:25:17;;;;;;;5.53;2.10;;;16.30;99.90;;;;;;5066847;28;20049;-74
2022/06/06 13:27:51;;;;;;;6.50;2.30;;;16.30;99.90;;;;;;5057257;28;20048;-74
2022/06/06 13:30:22;;;;;;;4.80;2.17;;;16.30;99.90;;;;;;5071007;28;20045;-73
2022/06/06 13:33:33;;;;;;;5.20;2.40;;;16.30;99.90;;;;;;5064948;28;20053;-74
2022/06/06 13:36:39;;;;;;;3.40;1.90;;;16.30;99.90;;;;;;5054053;28;20127;-72
2022/06/06 13:39:27;;;;;;;6.27;2.13;;;16.20;99.90;;;;;;5067660;28;20052;-78
2022/06/06 13:42:04;;;;;;;4.77;2.43;;;;;;;;;;5071843;28;20052;-78
2022/06/06 13:45:06;;;;;;;5.13;2.30;;;16.60;99.90;;;;;;5053138;28;20059;-80
2022/06/06 13:48:05;;;;;;;10.33;2.90;;;16.20;99.90;;;;;;5073242;28;20060;-81
2022/06/06 13:50:47;;;;;;;6.87;2.70;;;16.00;99.90;;;;;;5072536;28;20131;-77
2022/06/06 13:54:10;;;;;;;6.23;2.20;;;15.90;99.90;;;;;;5073079;28;20082;-78
2022/06/06 13:56:42;;;;;;;6.27;2.33;;;15.80;99.90;;;;;;5011374;28;20143;-78
2022/06/06 13:59:26;;;;;;;5.03;2.10;;;;;;;;;;5010806;28;20046;-77
2022/06/06 14:02:26;;;;;;;6.53;2.25;;;15.70;99.90;;;;;;5049223;28;20139;-78
2022/06/06 14:05:10;;;;;;;6.00;2.50;;;;;;;;;;5073235;28;20066;-78
2022/06/06 14:07:54;;;;;;;6.40;2.77;;;15.60;99.90;;;;;;5072695;28;20045;-80
2022/06/06 14:10:20;;;;;;;5.27;2.17;;;15.60;99.90;;;;;;5072419;28;20053;-79
2022/06/06 14:13:00;;;;;;;5.13;2.17;;;15.70;99.90;;;;;;5071214;28;20047;-80
2022/06/06 14:15:26;;;;;;;7.47;2.40;;;15.60;99.90;;;;;;5072626;28;20044;-79
2022/06/06 14:17:57;;;;;;;6.70;2.70;;;15.50;99.90;;;;;;5054811;28;20048;-79